• Join FlightAware (Why Join?)
  • Login
  • US Flag 
10:43PM EST


 

Airport Tracker/Info


-or-


 

Live Flight TrackerFlight Track Log ✈ UAL906 ✈ 10-Jun-2013 ✈ EDDF / FRA - KORD

Flight Track Log - Related Links

Times and Time Zones

All times are in EDT time to prevent confusion due to time zone crossing. See the UAL906 flight status page for this flight to view local times or setup timezone preferences in your user account.

Time Position Orientation Groundspeed Altitude Reporting Facility
EDT Latitude Longitude Course Direction KTS MPH feet Rate Location/Type
07:09AM 50.0520 8.6160 74° East 177 204 1,900  Level FlightAware
07:09AM 50.0560 8.6340 71° East 178 205 2,400 1,920 Climbing FlightAware
07:09AM 50.0630 8.6650 71° East 180 207 3,200 1,740 Climbing FlightAware
07:10AM 50.0710 8.7020 71° East 190 219 4,000 1,440 Climbing FlightAware
07:10AM 50.0770 8.7150 54° Northeast 201 231 4,200 780 Climbing FlightAware
07:10AM 50.0950 8.7300 28° Northeast 227 261 4,400 1,380 Climbing FlightAware
07:11AM 50.1320 8.7520 21° North 256 295 5,500 1,920 Climbing FlightAware
07:11AM 50.1540 8.7660 22° Northeast 259 298 6,200 1,920 Climbing FlightAware
07:11AM 50.1710 8.7770 23° Northeast 260 299 6,800 2,100 Climbing FlightAware
07:12AM 50.2010 8.7880 13° North 272 313 7,600 2,400 Climbing FlightAware
07:12AM 50.2310 8.7700 339° North 280 322 8,600 2,280 Climbing FlightAware
07:12AM 50.2420 8.7480 308° West 279 321 9,100 1,680 Climbing FlightAware
07:13AM 50.2710 8.6650 299° West 306 352 10,300 1,680 Climbing FlightAware
07:14AM 50.2990 8.5850 299° West 319 367 11,500 1,440 Climbing FlightAware
07:15AM 50.3130 8.4740 281° West 357 411 12,400 1,320 Climbing FlightAware
07:15AM 50.3200 8.3680 276° West 374 430 13,400 1,680 Climbing FlightAware
07:16AM 50.3260 8.2720 276° West 379 436 14,500 1,680 Climbing FlightAware
07:17AM 50.3330 8.1550 275° West 390 449 15,700 1,740 Climbing FlightAware
07:17AM 50.3410 8.0240 276° West 396 456 17,100 1,740 Climbing FlightAware
07:18AM 50.3500 7.8670 275° West 401 461 18,700 1,500 Climbing FlightAware
07:19AM 50.3580 7.7390 276° West 409 471 19,600 1,260 Climbing FlightAware
07:19AM 50.3670 7.6980 289° West 411 473 19,900 1,200 Climbing FlightAware
07:20AM 50.3990 7.6420 312° West 412 474 20,400 1,260 Climbing FlightAware
07:20AM 50.4770 7.5840 335° Northwest 418 481 21,400 1,320 Climbing FlightAware
07:21AM 50.5550 7.5300 336° Northwest 424 488 22,400 1,260 Climbing FlightAware
07:22AM 50.6240 7.4640 329° Northwest 431 496 23,200 1,080 Climbing FlightAware
07:23AM 50.7130 7.3720 327° Northwest 443 510 24,200 1,140 Climbing FlightAware
07:24AM 50.7960 7.2850 326° Northwest 449 517 25,100 1,260 Climbing FlightAware
07:24AM 50.8520 7.2270 327° Northwest 452 520 25,900 1,200 Climbing FlightAware
07:25AM 50.9360 7.1400 327° Northwest 457 526 26,700 960 Climbing FlightAware
07:26AM 51.0110 7.0480 322° Northwest 465 535 27,400 960 Climbing FlightAware
07:26AM 51.0750 6.9590 319° Northwest 470 541 28,100 960 Climbing FlightAware
07:27AM 51.1380 6.8620 316° Northwest 472 543 28,700 900 Climbing FlightAware
07:28AM 51.1730 6.7350 294° West 474 545 29,300 840 Climbing FlightAware
07:28AM 51.1980 6.5890 285° West 480 552 29,900 840 Climbing FlightAware
07:29AM 51.2250 6.4280 285° West 485 558 30,600 1,020 Climbing FlightAware
07:30AM 51.2480 6.2980 286° West 483 556 31,400 1,080 Climbing FlightAware
07:31AM 51.2760 6.1450 286° West 480 552 32,200 1,080 Climbing FlightAware
07:31AM 51.3170 6.0120 296° West 476 548 33,000 960 Climbing FlightAware
07:32AM 51.3600 5.9050 303° West 475 547 33,500 720 Climbing FlightAware
07:33AM 51.4170 5.7640 303° West 474 545 34,000 300 Climbing FlightAware
07:33AM 51.4660 5.6410 303° West 475 547 34,000  Level FlightAware
07:34AM 51.5170 5.5110 302° West 476 548 34,000 -120 Level FlightAware
07:35AM 51.5534 5.4127 302° West 478 550 33,900  Descending FlightAware UK
07:35AM 51.5630 5.3960 302° West 476 548 34,000 60 Climbing FlightAware
07:35AM 51.6160 5.2610 302° West 476 548 34,000  Level FlightAware
07:36AM 51.6580 5.1530 302° West 475 547 34,000 -120 Level FlightAware
07:36AM 51.6813 5.0913 302° West 476 548 33,900  Descending FlightAware UK
07:37AM 51.7150 5.0150 302° West 475 547 34,000  Climbing FlightAware
07:37AM 51.7599 4.9212 302° West 476 548 33,900  Descending FlightAware UK
07:37AM 51.7790 4.9180 302° West 474 545 34,000  Climbing FlightAware
07:38AM 51.8192 4.8693 302° West 480 552 33,900  Descending FlightAware UK
07:38AM 51.8540 4.8300 302° West 474 545 34,000 120 Climbing FlightAware
07:39AM 51.8924 4.7799 302° West 482 555 34,000  Level FlightAware UK
07:39AM 51.9280 4.7430 302° West 473 544 34,000 -120 Level FlightAware
07:40AM 51.9983 4.6548 302° West 484 557 33,900  Descending FlightAware UK
07:40AM 52.0060 4.6500 302° West 471 542 34,000  Climbing FlightAware
07:40AM 52.0530 4.5938 302° West 480 552 33,900  Descending FlightAware UK
07:40AM 52.0750 4.5670 302° West 469 540 34,000 180 Climbing FlightAware
07:41AM 52.1044 4.5299 302° West 480 552 34,000  Level FlightAware UK
07:41AM 52.1560 4.4710 302° West 467 537 34,000  Level FlightAware
07:42AM 52.2260 4.3860 323° Northwest 466 536 34,000  Level FlightAware
07:42AM 52.2970 4.3000 323° Northwest 465 535 34,000  Level FlightAware
07:43AM 52.3654 4.2186 323° Northwest 474 545 34,000  Level FlightAware UK
07:43AM 52.3700 4.2110 323° Northwest 465 535 34,000  Level FlightAware
07:44AM 52.4320 4.1360 324° Northwest 466 536 34,000  Level FlightAware
07:45AM 52.5190 4.0300 323° Northwest 467 537 34,000  Level FlightAware
07:45AM 52.5830 3.9370 319° Northwest 471 542 34,000  Level FlightAware
07:46AM 52.6380 3.8180 307° West 475 547 34,000  Level FlightAware
07:47AM 52.6930 3.6950 306° West 475 547 34,000  Level FlightAware
07:47AM 52.7460 3.5740 306° West 474 545 34,000  Level FlightAware
07:48AM 52.8030 3.4440 306° West 475 547 34,000  Level FlightAware
07:49AM 52.8520 3.3290 305° West 475 547 34,000  Level FlightAware
07:49AM 52.9030 3.2030 304° West 476 548 34,000  Level FlightAware
07:50AM 52.9304 3.1346 304° West 476 548 34,000  Level FlightAware UK
07:50AM 52.9570 3.0680 304° West 476 548 34,000  Level FlightAware
07:51AM 53.0031 2.9524 304° West 474 545 34,000  Level FlightAware UK
07:51AM 53.0180 2.9150 304° West 476 548 34,000 -180 Level FlightAware
07:52AM 53.0616 2.8069 304° West 474 545 33,900  Descending FlightAware UK
07:52AM 53.0750 2.7710 304° West 476 548 34,000  Climbing FlightAware
07:52AM 53.0979 2.7151 304° West 476 548 33,900  Descending FlightAware UK
07:52AM 53.1250 2.6460 304° West 476 548 34,000  Climbing FlightAware
07:53AM 53.1701 2.5315 304° West 476 548 33,900  Descending FlightAware UK
07:53AM 53.1770 2.5140 304° West 475 547 34,000  Climbing FlightAware
07:54AM 53.2131 2.4218 304° West 476 548 33,900  Descending FlightAware UK
07:54AM 53.2300 2.3800 304° West 474 545 34,000 120 Climbing FlightAware
07:54AM 53.2563 2.3115 304° West 476 548 34,000  Level FlightAware UK
07:55AM 53.2760 2.2610 304° West 475 547 34,000  Level FlightAware
07:55AM 53.3250 2.1350 303° West 475 547 34,000 -120 Level FlightAware
07:56AM 53.3704 2.0171 303° West 474 545 33,900  Descending FlightAware UK
07:56AM 53.3740 2.0080 303° West 475 547 34,000 120 Climbing FlightAware
07:56AM 53.4131 1.9059 303° West 474 545 34,000  Level FlightAware UK
07:57AM 53.4260 1.8730 303° West 474 545 34,000  Level FlightAware
07:57AM 53.4488 1.8135 303° West 474 545 34,000  Level FlightAware UK
07:57AM 53.4770 1.7390 303° West 475 547 34,000  Level FlightAware
07:58AM 53.5190 1.6300 303° West 475 547 34,000  Level FlightAware
07:58AM 53.5266 1.6087 303° West 474 545 34,000  Level FlightAware UK
07:59AM 53.5689 1.4966 303° West 474 545 34,000  Level FlightAware UK
07:59AM 53.5630 1.5130 303° West 476 548 34,000 -180 Level FlightAware
07:59AM 53.6110 1.3850 303° West 474 545 33,900  Descending FlightAware UK
07:59AM 53.6210 1.3590 303° West 475 547 34,000  Climbing FlightAware
08:00AM 53.6529 1.2733 303° West 474 545 33,900  Descending FlightAware UK
08:00AM 53.6750 1.2130 303° West 475 547 34,000 60 Climbing FlightAware
08:01AM 53.7150 1.1060 303° West 475 547 34,000 -180 Level FlightAware
08:01AM 53.7229 1.0852 303° West 474 545 33,900  Descending FlightAware UK
08:02AM 53.7710 0.9560 302° West 477 549 34,000  Climbing FlightAware
08:02AM 53.7997 0.8783 302° West 474 545 33,900  Descending FlightAware UK
08:02AM 53.8120 0.8420 302° West 477 549 34,000 180 Climbing FlightAware
08:02AM 53.8345 0.7834 302° West 474 545 34,000  Level FlightAware UK
08:03AM 53.8640 0.7020 302° West 477 549 34,000  Level FlightAware
08:04AM 53.9140 0.5640 302° West 476 548 34,000 -120 Level FlightAware
08:04AM 53.9400 0.5008 302° West 476 548 33,900  Descending FlightAware UK
08:04AM 53.9680 0.4330 302° West 476 548 34,000 60 Climbing FlightAware
08:05AM 54.0170 0.3180 302° West 476 548 34,000  Level FlightAware
08:05AM 54.0242 0.3013 302° West 476 548 34,000  Level FlightAware UK
08:06AM 54.0770 0.1810 307° West 476 548 34,000  Level FlightAware
08:06AM 54.1290 0.0600 306° West 477 549 34,000  Level FlightAware
08:07AM 54.1820 -0.0630 306° West 477 549 34,000  Level FlightAware
08:08AM 54.2410 -0.2000 306° West 478 550 34,000  Level FlightAware
08:08AM 54.2662 -0.2597 306° West 476 548 34,000  Level FlightAware UK
08:08AM 54.2940 -0.3260 306° West 478 550 34,000  Level FlightAware
08:09AM 54.3450 -0.4460 306° West 477 549 34,000  Level FlightAware
08:10AM 54.4054 -0.5899 306° West 476 548 34,000  Level FlightAware UK
08:10AM 54.4030 -0.5840 306° West 477 549 34,000  Level FlightAware
08:11AM 54.4591 -0.7190 306° West 476 548 34,000  Level FlightAware UK
08:11AM 54.4660 -0.7350 306° West 477 549 34,000  Level FlightAware
08:11AM 54.5205 -0.8667 306° West 476 548 34,000  Level FlightAware UK
08:12AM 54.5220 -0.8710 306° West 477 549 34,000 -180 Level FlightAware
08:12AM 54.5815 -1.0142 306° West 476 548 33,900  Descending FlightAware UK
08:12AM 54.5860 -1.0260 306° West 476 548 34,000 120 Climbing FlightAware
08:13AM 54.6410 -1.1590 306° West 477 549 34,000 -120 Level FlightAware
08:13AM 54.6724 -1.2366 306° West 476 548 33,900  Descending FlightAware UK
08:14AM 54.6910 -1.2820 306° West 476 548 34,000 60 Climbing FlightAware
08:14AM 54.7420 -1.4070 305° West 476 548 34,000 -120 Level FlightAware
08:15AM 54.7631 -1.4598 305° West 474 545 33,900  Descending FlightAware UK
08:15AM 54.7980 -1.5460 305° West 476 548 34,000  Climbing FlightAware
08:16AM 54.8381 -1.6467 305° West 474 545 33,900  Descending FlightAware UK
08:16AM 54.8500 -1.6780 305° West 477 549 34,000 120 Climbing FlightAware
08:16AM 54.8983 -1.7972 305° West 474 545 34,000  Level FlightAware UK
08:16AM 54.9050 -1.8130 305° West 477 549 34,000 -180 Level FlightAware
08:17AM 54.9434 -1.9103 305° West 474 545 33,900  Descending FlightAware UK
08:17AM 54.9560 -1.9420 305° West 477 549 34,000 120 Climbing FlightAware
08:18AM 55.0030 -2.0612 305° West 474 545 34,000  Level FlightAware UK
08:18AM 55.0090 -2.0780 305° West 477 549 34,000  Level FlightAware
08:18AM 55.0476 -2.1756 305° West 474 545 34,000  Level FlightAware UK
08:19AM 55.0570 -2.2060 305° West 477 549 34,000  Level FlightAware
08:19AM 55.0806 -2.2756 305° West 474 545 34,000  Level FlightAware UK
08:19AM 55.1050 -2.3570 305° West 478 550 34,000  Level FlightAware
08:20AM 55.1430 -2.4840 298° West 478 550 34,000 -120 Level FlightAware
08:21AM 55.1951 -2.6660 298° West 474 545 33,900  Descending FlightAware UK
08:21AM 55.2030 -2.6930 298° West 479 551 34,000 180 Climbing FlightAware
08:21AM 55.2246 -2.7700 298° West 474 545 34,000  Level FlightAware UK
08:22AM 55.2410 -2.8290 298° West 480 552 34,000 -180 Level FlightAware
08:22AM 55.2715 -2.9353 298° West 472 543 33,900  Descending FlightAware UK
08:22AM 55.2840 -2.9810 298° West 481 554 34,000  Climbing FlightAware
08:23AM 55.3011 -3.0398 298° West 472 543 33,900  Descending FlightAware UK
08:23AM 55.3230 -3.1170 298° West 482 555 34,000  Climbing FlightAware
08:23AM 55.3427 -3.1866 298° West 472 543 33,900  Descending FlightAware UK
08:24AM 55.3630 -3.2570 298° West 483 556 34,000  Climbing FlightAware
08:24AM 55.3842 -3.3338 298° West 474 545 33,900  Descending FlightAware UK
08:24AM 55.4070 -3.4140 298° West 483 556 34,000  Climbing FlightAware
08:25AM 55.4258 -3.4814 298° West 474 545 33,900  Descending FlightAware UK
08:25AM 55.4460 -3.5540 298° West 484 557 34,000  Climbing FlightAware
08:26AM 55.4841 -3.6929 298° West 474 545 33,900  Descending FlightAware UK
08:26AM 55.4900 -3.7120 298° West 484 557 34,000  Climbing FlightAware
08:26AM 55.5135 -3.7994 298° West 474 545 33,900  Descending FlightAware UK
08:26AM 55.5310 -3.8610 298° West 485 558 34,000 120 Climbing FlightAware
08:27AM 55.5601 -3.9688 298° West 472 543 34,000  Level FlightAware UK
08:27AM 55.5740 -4.0220 298° West 486 559 34,000 -180 Level FlightAware
08:28AM 55.5950 -4.0971 298° West 474 545 33,900  Descending FlightAware UK
08:28AM 55.6100 -4.1520 298° West 486 559 34,000 60 Climbing FlightAware
08:29AM 55.6480 -4.2940 298° West 487 560 34,000  Level FlightAware
08:29AM 55.6530 -4.3120 298° West 474 545 34,000  Level FlightAware UK
08:29AM 55.6934 -4.4629 298° West 474 545 34,000  Level FlightAware UK
08:29AM 55.6930 -4.4630 298° West 487 560 34,000 -240 Level FlightAware
08:30AM 55.7221 -4.5711 298° West 474 545 33,900  Descending FlightAware UK
08:30AM 55.7330 -4.6120 298° West 487 560 34,000 120 Climbing FlightAware
08:30AM 55.7623 -4.7221 298° West 474 545 34,000  Level FlightAware UK
08:31AM 55.7710 -4.7560 298° West 488 562 34,000  Level FlightAware
08:31AM 55.7966 -4.8524 298° West 474 545 34,000  Level FlightAware UK
08:31AM 55.8130 -4.9170 298° West 489 563 34,000  Level FlightAware
08:32AM 55.8309 -4.9831 298° West 474 545 34,000  Level FlightAware UK
08:32AM 55.8480 -5.0500 298° West 486 559 34,000  Level FlightAware
08:33AM 55.8936 -5.2239 298° West 476 548 34,000  Level FlightAware UK
08:33AM 55.9170 -5.3160 298° West 487 560 34,000  Level FlightAware
08:34AM 55.9590 -5.4820 294° West 489 563 34,000 -120 Level FlightAware
08:34AM 55.9779 -5.5539 294° West 472 543 33,900  Descending FlightAware UK
08:35AM 56.0000 -5.6400 294° West 490 564 34,000  Climbing FlightAware
08:35AM 56.0344 -5.7763 294° West 470 541 33,900  Descending FlightAware UK
08:35AM 56.0370 -5.7890 294° West 492 566 34,000  Climbing FlightAware
08:36AM 56.0625 -5.8884 294° West 474 545 33,900 240 Descending FlightAware UK
08:36AM 56.0780 -5.9500 294° West 495 570 34,200 780 Climbing FlightAware
08:37AM 56.1160 -6.1050 294° West 495 570 34,700 660 Climbing FlightAware
08:37AM 56.1187 -6.1142 294° West 476 548 34,700 720 Level FlightAware UK
08:37AM 56.1466 -6.2270 294° West 474 545 35,100 540 Climbing FlightAware UK
08:37AM 56.1480 -6.2320 294° West 494 568 35,100 420 Level FlightAware
08:38AM 56.1854 -6.3846 294° West 484 557 35,400 720 Climbing FlightAware UK
08:38AM 56.1950 -6.4220 294° West 497 572 35,600 960 Climbing FlightAware
08:38AM 56.2133 -6.4985 294° West 484 557 35,900 480 Climbing FlightAware UK
08:39AM 56.2370 -6.5950 294° West 495 570 36,000  Climbing FlightAware
08:40AM 56.2735 -6.7466 294° West 482 555 35,900  Descending FlightAware UK
08:40AM 56.2720 -6.7420 294° West 494 568 36,000 180 Climbing FlightAware
08:40AM 56.3006 -6.8592 294° West 480 552 36,000  Level FlightAware UK
08:40AM 56.3120 -6.9070 294° West 494 568 36,000 -180 Level FlightAware
08:41AM 56.3327 -6.9950 294° West 478 550 35,900  Descending FlightAware UK
08:41AM 56.3430 -7.0390 294° West 495 570 36,000 180 Climbing FlightAware
08:41AM 56.3596 -7.1084 294° West 478 550 36,000  Level FlightAware UK
08:42AM 56.3850 -7.2130 294° West 495 570 36,000  Level FlightAware
08:42AM 56.4189 -7.3586 294° West 476 548 36,000  Level FlightAware UK
08:42AM 56.4250 -7.3840 294° West 496 571 36,000 -240 Level FlightAware
08:43AM 56.4457 -7.4728 294° West 480 552 35,900  Descending FlightAware UK
08:43AM 56.4600 -7.5360 294° West 496 571 36,000 120 Climbing FlightAware
08:43AM 56.4772 -7.6094 294° West 476 548 36,000  Level FlightAware UK
08:44AM 56.4950 -7.6860 294° West 497 572 36,000  Level FlightAware
08:44AM 56.5300 -7.8391 294° West 478 550 36,000  Level FlightAware UK
08:44AM 56.5310 -7.8430 294° West 499 574 36,000  Level FlightAware
08:45AM 56.5567 -7.9545 294° West 478 550 36,000  Level FlightAware UK
08:45AM 56.5710 -8.0190 294° West 499 574 36,000  Level FlightAware
08:45AM 56.5882 -8.0938 294° West 482 555 36,000  Level FlightAware UK
08:46AM 56.6100 -8.1930 294° West 497 572 36,000  Level FlightAware
08:46AM 56.6403 -8.3264 294° West 480 552 36,000  Level FlightAware UK
08:47AM 56.6450 -8.3460 294° West 497 572 36,000  Level FlightAware
08:47AM 56.6664 -8.4428 294° West 480 552 36,000  Level FlightAware UK
08:47AM 56.6760 -8.4880 294° West 497 572 36,000  Level FlightAware
08:48AM 56.7181 -8.6765 294° West 476 548 36,000  Level FlightAware UK
08:48AM 56.7190 -8.6800 294° West 498 573 36,000  Level FlightAware
08:48AM 56.7438 -8.7941 294° West 474 545 36,000  Level FlightAware UK
08:49AM 56.7490 -8.8180 294° West 502 578 36,000  Level FlightAware
08:49AM 56.7745 -8.9349 294° West 480 552 36,000  Level FlightAware UK
08:49AM 56.7920 -9.0180 294° West 503 579 36,000  Level FlightAware
08:50AM 56.8220 -9.1560 292° West 503 579 36,000  Level FlightAware
08:51AM 56.8610 -9.3340 292° West 503 579 36,000  Level FlightAware
08:51AM 56.8870 -9.4670 290° West 503 579 36,000  Level FlightAware
08:52AM 56.9270 -9.6680 290° West 503 579 36,000  Level FlightAware
08:53AM 56.9510 -9.7910 290° West 503 579 36,000  Level FlightAware
08:54AM 57.0140 -10.0530 294° West 36,000  Level FlightAware
08:55AM 57.1240 -10.4270 288° West 36,000  Level FlightAware
08:56AM 57.0801 -10.4356 288° West  Level Estimated
08:56AM 57.1540 -10.5450 295° West 505 581 36,000  Level FlightAware
08:57AM 57.1940 -10.7040 295° West 505 581 36,000  Level FlightAware
08:57AM 57.2240 -10.8240 295° West 505 581 36,000  Level FlightAware
08:58AM 57.2640 -10.9840 295° West 505 581 36,000  Level FlightAware
08:59AM 57.2940 -11.1040 295° West 505 581 36,000  Level FlightAware
09:00AM 57.3350 -11.2640 295° West 505 581 36,000  Level FlightAware
09:00AM 57.3640 -11.3800 295° West 505 581 36,000  Level FlightAware
09:01AM 57.4050 -11.5440 295° West 505 581 36,000  Level FlightAware
09:02AM 57.4360 -11.6680 295° West 505 581 36,000  Level FlightAware
09:02AM 57.4770 -11.8320 295° West 505 581 36,000  Level FlightAware
09:03AM 57.5080 -11.9560 295° West 505 581 36,000  Level FlightAware
09:04AM 57.5490 -12.1200 295° West 505 581 36,000  Level FlightAware
09:04AM 57.5800 -12.2410 296° West 505 581 36,000  Level FlightAware
09:05AM 57.6120 -12.3680 295° West 505 581 36,000  Level FlightAware
09:08AM 57.7301 -12.9123 292° West  Level FlightAware Approximate
09:09AM 57.7790 -13.1418 292° West  Level FlightAware Approximate
09:10AM 57.8274 -13.3718 292° West  Level FlightAware Approximate
09:11AM 57.8754 -13.6025 291° West  Level FlightAware Approximate
09:12AM 57.9230 -13.8338 291° West  Level FlightAware Approximate
09:13AM 57.9702 -14.0657 291° West  Level FlightAware Approximate
09:14AM 58.0170 -14.2982 291° West  Level FlightAware Approximate
09:15AM 58.0633 -14.5313 291° West  Level FlightAware Approximate
09:16AM 58.1092 -14.7650 290° West  Level FlightAware Approximate
09:17AM 58.1547 -14.9993 290° West  Level FlightAware Approximate
09:18AM 58.1998 -15.2342 290° West  Level FlightAware Approximate
09:19AM 58.2444 -15.4697 290° West  Level FlightAware Approximate
09:20AM 58.2886 -15.7058 290° West  Level FlightAware Approximate
09:21AM 58.3323 -15.9425 289° West  Level FlightAware Approximate
09:22AM 58.3756 -16.1798 289° West  Level FlightAware Approximate
09:23AM 58.4185 -16.4176 289° West  Level FlightAware Approximate
09:24AM 58.4609 -16.6560 289° West  Level FlightAware Approximate
09:25AM 58.5029 -16.8950 289° West  Level FlightAware Approximate
09:26AM 58.5445 -17.1346 288° West  Level FlightAware Approximate
09:27AM 58.5856 -17.3747 288° West  Level FlightAware Approximate
09:28AM 58.6262 -17.6154 288° West  Level FlightAware Approximate
09:29AM 58.6664 -17.8567 288° West  Level FlightAware Approximate
09:30AM 58.7062 -18.0985 288° West  Level FlightAware Approximate
09:31AM 58.7454 -18.3408 287° West  Level FlightAware Approximate
09:32AM 58.7843 -18.5837 287° West  Level FlightAware Approximate
09:33AM 58.8227 -18.8272 287° West  Level FlightAware Approximate
09:33AM 59.0000 -20.0000 296° West 537 618 36,000  Level ETMS Enhanced Traffic Management System
09:34AM 58.8606 -19.0711 287° West  Level FlightAware Approximate
09:35AM 58.8980 -19.3156 287° West  Level FlightAware Approximate
09:36AM 58.9350 -19.5607 286° West  Level FlightAware Approximate
09:37AM 58.9715 -19.8062 286° West  Level FlightAware Approximate
09:38AM 59.0123 -20.0496 296° West  Level FlightAware Approximate
09:39AM 59.3846 -21.5810 295° West 537 618 36,000  Level FlightAware Transoceanic
09:40AM 59.4468 -21.8480 294° West 537 618 36,000  Level FlightAware Transoceanic
09:41AM 59.5085 -22.1159 294° West 537 618 36,000  Level FlightAware Transoceanic
09:42AM 59.5696 -22.3848 294° West 537 618 36,000  Level FlightAware Transoceanic
09:43AM 59.6302 -22.6547 294° West 537 618 36,000  Level FlightAware Transoceanic
09:44AM 59.6902 -22.9256 294° West 537 618 36,000  Level FlightAware Transoceanic
09:45AM 59.7496 -23.1974 293° West 537 618 36,000  Level FlightAware Transoceanic
09:46AM 59.8085 -23.4702 293° West 537 618 36,000  Level FlightAware Transoceanic
09:47AM 59.8669 -23.7439 293° West 537 618 36,000  Level FlightAware Transoceanic
09:48AM 59.9246 -24.0186 293° West 537 618 36,000  Level FlightAware Transoceanic
09:49AM 59.9818 -24.2943 292° West 537 618 36,000  Level FlightAware Transoceanic
09:50AM 60.0384 -24.5709 292° West 537 618 36,000  Level FlightAware Transoceanic
09:51AM 60.0944 -24.8484 292° West 537 618 36,000  Level FlightAware Transoceanic
09:52AM 60.1498 -25.1269 292° West 537 618 36,000  Level FlightAware Transoceanic
09:53AM 60.2047 -25.4064 291° West 537 618 36,000  Level FlightAware Transoceanic
09:54AM 60.2590 -25.6867 291° West 537 618 36,000  Level FlightAware Transoceanic
09:55AM 60.3126 -25.9680 291° West 537 618 36,000  Level FlightAware Transoceanic
09:56AM 60.3657 -26.2502 291° West 537 618 36,000  Level FlightAware Transoceanic
09:57AM 60.4182 -26.5333 290° West 537 618 36,000  Level FlightAware Transoceanic
09:58AM 60.4701 -26.8174 290° West 537 618 36,000  Level FlightAware Transoceanic
09:59AM 60.5213 -27.1023 290° West 537 618 36,000  Level FlightAware Transoceanic
10:00AM 60.5720 -27.3881 290° West 537 618 36,000  Level FlightAware Transoceanic
10:01AM 60.6220 -27.6749 289° West 537 618 36,000  Level FlightAware Transoceanic
10:02AM 60.6715 -27.9625 289° West 537 618 36,000  Level FlightAware Transoceanic
10:03AM 60.7203 -28.2510 289° West 537 618 36,000  Level FlightAware Transoceanic
10:04AM 60.7685 -28.5403 289° West 537 618 36,000  Level FlightAware Transoceanic
10:05AM 60.8160 -28.8306 288° West 537 618 36,000  Level FlightAware Transoceanic
10:06AM 60.8630 -29.1217 288° West 537 618 36,000  Level FlightAware Transoceanic
10:07AM 60.9093 -29.4136 288° West 537 618 36,000  Level FlightAware Transoceanic
10:08AM 60.9550 -29.7064 288° West 537 618 36,000  Level FlightAware Transoceanic
10:09AM 60.9947 -29.9654 288° West  Level FlightAware Approximate
10:10AM 61.0340 -30.2250 287° West  Level FlightAware Approximate
10:11AM 61.0268 -30.1915 286° West  Level FlightAware Approximate
10:12AM 61.0630 -30.4534 286° West  Level FlightAware Approximate
10:13AM 61.0986 -30.7158 286° West  Level FlightAware Approximate
10:14AM 61.1338 -30.9786 286° West  Level FlightAware Approximate
10:15AM 61.1684 -31.2420 285° West  Level FlightAware Approximate
10:16AM 61.2025 -31.5060 285° West  Level FlightAware Approximate
10:17AM 61.2360 -31.7705 285° West  Level FlightAware Approximate
10:18AM 61.2691 -32.0357 285° West  Level FlightAware Approximate
10:19AM 61.3017 -32.3013 284° West  Level FlightAware Approximate
10:20AM 61.3337 -32.5676 284° West  Level FlightAware Approximate
10:21AM 61.3652 -32.8343 284° West  Level FlightAware Approximate
10:22AM 61.3962 -33.1016 284° West  Level FlightAware Approximate
10:23AM 61.4266 -33.3694 283° West  Level FlightAware Approximate
10:24AM 61.4566 -33.6378 283° West  Level FlightAware Approximate
10:25AM 61.4860 -33.9066 283° West  Level FlightAware Approximate
10:26AM 61.5148 -34.1760 283° West  Level FlightAware Approximate
10:27AM 61.5432 -34.4458 283° West  Level FlightAware Approximate
10:28AM 61.5710 -34.7162 282° West  Level FlightAware Approximate
10:29AM 61.5982 -34.9870 282° West  Level FlightAware Approximate
10:30AM 61.6250 -35.2583 282° West  Level FlightAware Approximate
10:31AM 61.6512 -35.5300 282° West  Level FlightAware Approximate
10:31AM 61.7667 -36.4667 280° West 530 610 36,000  Level Gander Center
10:32AM 61.6768 -35.8022 281° West  Level FlightAware Approximate
10:32AM 61.7833 -36.7500 277° West 530 610 36,000  Level Gander Center
10:33AM 61.7019 -36.0749 281° West  Level FlightAware Approximate
10:33AM 61.8167 -37.0667 283° West 530 610 36,000  Level Gander Center
10:34AM 61.7265 -36.3480 281° West  Level FlightAware Approximate
10:34AM 61.8500 -37.3833 283° West 530 610 36,000  Level Gander Center
10:35AM 61.7505 -36.6215 281° West  Level FlightAware Approximate
10:35AM 61.8667 -37.6667 277° West 530 610 36,000  Level Gander Center
10:36AM 61.7740 -36.8955 280° West  Level FlightAware Approximate
10:36AM 61.9000 -37.9667 283° West 530 610 36,000  Level Gander Center
10:37AM 61.7970 -37.1698 280° West  Level FlightAware Approximate
10:37AM 61.9167 -38.2833 277° West 530 610 36,000  Level Gander Center
10:38AM 61.9333 -38.5667 277° West 530 610 36,000  Level Gander Center
10:39AM 61.9667 -38.8833 283° West 530 610 36,000  Level Gander Center
10:40AM 61.9667 -39.1667 270° West 530 610 36,000  Level Gander Center
10:41AM 62.0000 -39.4833 283° West 520 598 36,000  Level Gander Center
10:42AM 62.0167 -39.8000 277° West 520 598 36,000  Level Gander Center
10:43AM 62.0333 -40.0833 277° West 520 598 36,000  Level Gander Center
10:44AM 62.0333 -40.4000 270° West 520 598 36,000  Level Gander Center
10:45AM 62.0500 -40.7000 277° West 520 598 36,000  Level Gander Center
10:46AM 62.0500 -40.9833 270° West 520 598 36,000  Level Gander Center
10:47AM 62.0667 -41.3000 277° West 520 598 36,000  Level Gander Center
10:48AM 62.0667 -41.6000 270° West 520 598 36,000  Level Gander Center
10:49AM 62.0833 -41.9167 277° West 520 598 36,000  Level Gander Center
10:50AM 62.0833 -42.2000 270° West 520 598 36,000  Level Gander Center
10:51AM 62.1000 -42.5000 277° West 520 598 36,000  Level Gander Center
10:52AM 62.1000 -42.8167 270° West 520 598 36,000  Level Gander Center
10:53AM 62.1000 -43.1167 270° West 520 598 36,000  Level Gander Center
10:54AM 62.1000 -43.4000 270° West 520 598 36,000  Level Gander Center
10:55AM 62.1167 -43.7167 277° West 520 598 36,000  Level Gander Center
10:56AM 62.1167 -44.0167 270° West 520 598 36,000  Level Gander Center
10:57AM 62.1167 -44.3333 270° West 520 598 36,000  Level Gander Center
10:58AM 62.1167 -44.6333 270° West 510 587 36,000  Level Gander Center
10:59AM 62.1167 -44.9167 270° West 520 598 36,000  Level Gander Center
11:00AM 62.1167 -45.2500 270° West 510 587 36,000  Level Gander Center
11:01AM 62.0000 -40.0000 274° West 511 588 36,000  Level ETMS Enhanced Traffic Management System
11:01AM 62.1167 -45.5333 274° West 510 587 36,000  Level Gander Center
11:02AM 62.1167 -45.8333 270° West 510 587 36,000  Level Gander Center
11:03AM 62.1167 -46.1167 270° West 510 587 36,000  Level Gander Center
11:04AM 62.1167 -46.4500 270° West 520 598 36,000  Level Gander Center
11:05AM 62.1167 -46.7333 270° West 520 598 36,000  Level Gander Center
11:06AM 62.1000 -47.0667 264° West 520 598 36,000  Level Gander Center
11:07AM 62.0833 -47.3500 263° West 520 598 36,000  Level Gander Center
11:08AM 62.0833 -47.6500 270° West 510 587 36,000  Level Gander Center
11:09AM 62.0833 -47.9667 270° West 510 587 36,000  Level Gander Center
11:10AM 62.0667 -48.2667 263° West 510 587 36,000  Level Gander Center
11:11AM 62.0667 -48.5500 270° West 510 587 36,000  Level Gander Center
11:12AM 62.0667 -48.8500 270° West 510 587 36,000  Level Gander Center
11:13AM 62.0500 -49.1333 263° West 510 587 36,000  Level Gander Center
11:14AM 62.0500 -49.4500 270° West 510 587 36,000  Level Gander Center
11:15AM 62.0333 -49.7500 263° West 510 587 36,000  Level Gander Center
11:16AM 62.0167 -50.0333 263° West 510 587 36,000  Level Gander Center
11:17AM 62.0167 -50.3333 270° West 510 587 36,000  Level Gander Center
11:18AM 61.9833 -50.6167 256° West 510 587 36,000  Level Gander Center
11:19AM 61.9667 -50.9167 263° West 510 587 36,000  Level Gander Center
11:20AM 61.9500 -51.2000 263° West 510 587 36,000  Level Gander Center
11:21AM 61.9333 -51.5000 263° West 510 587 36,000  Level Gander Center
11:22AM 61.9000 -51.7833 256° West 510 587 36,000  Level Gander Center
11:23AM 61.8833 -52.1167 264° West 510 587 36,000  Level Gander Center
11:25AM 61.8500 -52.5833 262° West 510 587 36,000  Level Gander Center
11:25AM 61.8333 -52.6833 251° West 510 587 36,000  Level Gander Center
11:26AM 61.8000 -52.9833 257° West 510 587 36,000  Level Gander Center
11:27AM 61.8000 -53.1667 270° West 510 587 36,000  Level Gander Center
11:28AM 61.7667 -53.4500 256° West 510 587 36,000  Level Gander Center
11:29AM 61.7500 -53.7333 263° West 510 587 36,000  Level Gander Center
11:30AM 61.7167 -54.0667 258° West 510 587 36,000  Level Gander Center
11:30AM 61.7000 -54.1333 242° Southwest 510 587 36,000  Level Gander Center
11:31AM 61.6833 -54.4167 263° West 510 587 36,000  Level Gander Center
11:32AM 61.6500 -54.6333 252° West 510 587 36,000  Level Gander Center
11:33AM 61.6333 -54.9167 263° West 510 587 36,000  Level Gander Center
11:34AM 61.6000 -55.2000 256° West 510 587 36,000  Level Gander Center
11:34AM 61.6000 -55.3167 270° West 510 587 36,000  Level Gander Center
11:35AM 61.5833 -55.4833 258° West 510 587 36,000  Level Gander Center
11:35AM 62.0000 -50.0000 263° West 500 575 36,000  Level ETMS Enhanced Traffic Management System
11:36AM 61.5333 -55.7833 263° West 510 587 36,000  Level Gander Center
11:37AM 61.5167 -56.0667 263° West 510 587 36,000  Level Gander Center
11:38AM 61.4833 -56.3833 258° West 510 587 36,000  Level Gander Center
11:39AM 61.4500 -56.6667 256° West 510 587 36,000  Level Gander Center
11:41AM 61.3833 -57.2333 256° West 520 598 36,000  Level Gander Center
11:42AM 61.3500 -57.5000 255° West 520 598 36,000  Level Gander Center
11:43AM 61.3167 -57.7833 256° West 510 587 36,000  Level Gander Center
11:44AM 61.2833 -58.1000 258° West 510 587 36,000  Level Gander Center
11:45AM 61.2500 -58.3833 256° West 520 598 36,000  Level Gander Center
11:45AM 61.2333 -58.3833 180° South 510 587 36,000  Level Montreal Center
11:46AM 61.2000 -58.6667 256° West 510 587 36,000  Level Gander Center
11:46AM 61.1833 -58.7667 251° West 510 587 36,000  Level Gander Center
11:47AM 61.1833 -58.9333 270° West 510 587 36,000  Level Gander Center
11:48AM 61.1333 -59.2167 250° West 510 587 36,000  Level Gander Center
11:49AM 61.1000 -59.5000 256° West 510 587 36,000  Level Gander Center
11:50AM 61.0500 -59.8000 251° West 510 587 36,000  Level Gander Center
11:50AM 61.0333 -59.8833 248° West 510 587 36,000  Level Gander Center
11:51AM 61.0167 -60.0833 260° West 510 587 36,000  Level Gander Center
11:51AM 61.0167 -60.1500 270° West 510 587 36,000  Level Gander Center
11:52AM 60.9667 -60.4667 252° West 510 587 36,000  Level Gander Center
11:53AM 60.9333 -60.6333 248° West 510 587 36,000  Level Gander Center
11:54AM 60.8833 -60.9000 249° West 510 587 36,000  Level Gander Center
11:55AM 60.8500 -61.1833 257° West 510 587 36,000  Level Gander Center
11:56AM 60.8000 -61.4500 249° West 510 587 36,000  Level Gander Center
11:57AM 60.7500 -61.7167 249° West 510 587 36,000  Level Gander Center
11:58AM 60.7167 -62.0000 257° West 510 587 36,000  Level Gander Center
11:58AM 60.7000 -62.1000 251° West 510 587 36,000  Level Gander Center
11:59AM 60.6667 -62.2667 248° West 510 587 36,000  Level Gander Center
12:00PM 60.6167 -62.5667 251° West 510 587 36,000  Level Gander Center
12:00PM 60.6000 -62.6333 243° Southwest 510 587 36,000  Level Gander Center
12:01PM 60.5500 -62.8333 243° Southwest 510 587 36,000  Level Gander Center
12:02PM 60.5167 -63.1000 256° West 510 587 36,000  Level Gander Center
12:03PM 60.4667 -63.3333 247° West 510 587 36,000  Level Gander Center
12:04PM 60.4167 -63.6000 249° West 510 587 36,000  Level Gander Center
12:04PM 60.4000 -63.7000 251° West 510 587 36,000  Level Gander Center
12:05PM 60.3833 -63.8667 259° West 510 587 36,000  Level Gander Center
12:06PM 60.3167 -64.1333 243° Southwest 510 587 36,000  Level Gander Center
12:07PM 60.2667 -64.4000 249° West 510 587 36,000  Level Gander Center
12:07PM 60.2500 -64.4167 206° Southwest 510 587 36,000  Level Montreal Center
12:08PM 60.2167 -64.6667 255° West 510 587 36,000  Level Gander Center
12:09PM 60.1500 -64.9167 242° Southwest 510 587 36,000  Level Gander Center
12:10PM 60.1000 -65.1833 249° West 510 587 36,000  Level Gander Center
12:11PM 59.9833 -65.4000 223° Southwest 510 587 36,000  Level Gander Center
12:12PM 59.9000 -65.6333 235° Southwest 510 587 36,000  Level Gander Center
12:13PM 59.8167 -65.8167 228° Southwest 510 587 36,000  Level Gander Center
12:13PM 59.7667 -65.9167 225° Southwest 520 598 36,000  Level Gander Center
12:14PM 59.7000 -66.0333 221° Southwest 510 587 36,000  Level Gander Center
12:15PM 59.6167 -66.2500 233° Southwest 520 598 36,000  Level Gander Center
12:15PM 59.5833 -66.2500 180° South 510 587 36,000  Level Montreal Center
12:16PM 59.5167 -66.4333 234° Southwest 520 598 36,000  Level Gander Center
12:17PM 59.4167 -66.6500 228° Southwest 520 598 36,000  Level Gander Center
12:18PM 59.3167 -66.8667 228° Southwest 520 598 36,000  Level Gander Center
12:18PM 59.2833 -66.9167 217° Southwest 520 598 36,000  Level Gander Center
12:19PM 59.2333 -67.0500 234° Southwest 520 598 36,000  Level Gander Center
12:19PM 59.2000 -67.1333 232° Southwest 520 598 36,000  Level Gander Center
12:20PM 59.0833 -67.3167 219° Southwest 520 598 36,000  Level Gander Center
12:21PM 59.0333 -67.4667 237° Southwest 520 598 36,000  Level Gander Center
12:21PM 58.9833 -67.4667 180° South 510 587 36,000  Level Montreal Center
12:22PM 58.9333 -67.6500 242° Southwest 520 598 36,000  Level Gander Center
12:23PM 58.8167 -67.8833 226° Southwest 520 598 36,000  Level Gander Center
12:23PM 58.8000 -67.8667 153° Southeast 510 587 36,000  Level Montreal Center
12:24PM 58.7333 -68.0667 237° Southwest 520 598 36,000  Level Gander Center
12:25PM 58.6167 -68.2667 222° Southwest 510 587 36,000  Level Gander Center
12:25PM 58.6000 -68.2667 180° South 510 587 36,000  Level Montreal Center
12:26PM 58.4833 -68.4500 219° Southwest 510 587 36,000  Level Montreal Center
12:27PM 58.4000 -68.6667 234° Southwest 510 587 36,000  Level Montreal Center
12:28PM 58.3000 -68.8500 224° Southwest 510 587 36,000  Level Montreal Center
12:29PM 58.2000 -69.0333 224° Southwest 510 587 36,000  Level Montreal Center
12:30PM 58.1167 -69.2333 232° Southwest 510 587 36,000  Level Montreal Center
12:31PM 58.0167 -69.4167 224° Southwest 510 587 36,000  Level Gander Center
12:32PM 57.9167 -69.6167 227° Southwest 510 587 36,000  Level Gander Center
12:33PM 57.8333 -69.8167 232° Southwest 510 587 36,000  Level Gander Center
12:33PM 57.8000 -69.8000 165° South 510 587 36,000  Level Montreal Center
12:34PM 57.7333 -69.9833 236° Southwest 510 587 36,000  Level Gander Center
12:35PM 57.6167 -70.1667 220° Southwest 510 587 36,000  Level Gander Center
12:35PM 57.6000 -70.1833 208° Southwest 510 587 36,000  Level Montreal Center
12:36PM 57.4833 -70.3500 218° Southwest 510 587 36,000  Level Montreal Center
12:37PM 57.4000 -70.5500 232° Southwest 510 587 36,000  Level Montreal Center
12:38PM 57.2833 -70.7333 220° Southwest 510 587 36,000  Level Montreal Center
12:39PM 57.2167 -70.9167 236° Southwest 520 598 36,000  Level Gander Center
12:40PM 57.1167 -71.0833 222° Southwest 520 598 36,000  Level Gander Center
12:40PM 57.0833 -71.1000 195° South 510 587 36,000  Level Montreal Center
12:41PM 56.9833 -71.2667 222° Southwest 510 587 36,000  Level Montreal Center
12:42PM 56.9000 -71.4167 225° Southwest 510 587 36,000  Level Gander Center
12:43PM 56.8000 -71.6333 230° Southwest 510 587 36,000  Level Gander Center
12:43PM 56.7833 -71.6000 132° Southeast 510 587 36,000  Level Montreal Center
12:44PM 56.6667 -71.8000 223° Southwest 500 575 36,000  Level Montreal Center
12:45PM 56.5667 -71.9833 225° Southwest 500 575 36,000  Level Montreal Center
12:46PM 56.4667 -72.1500 223° Southwest 500 575 36,000  Level Montreal Center
12:47PM 56.3667 -72.3167 223° Southwest 500 575 36,000  Level Montreal Center
12:48PM 56.2500 -72.4833 218° Southwest 500 575 36,000  Level Montreal Center
12:49PM 56.1500 -72.6667 226° Southwest 500 575 36,000  Level Montreal Center
12:50PM 56.0500 -72.8333 223° Southwest 500 575 36,000  Level Montreal Center
12:51PM 55.9500 -72.9833 220° Southwest 500 575 36,000  Level Montreal Center
12:52PM 55.8500 -73.1500 223° Southwest 500 575 36,000  Level Montreal Center
12:53PM 55.7333 -73.3333 222° Southwest 500 575 36,000  Level Montreal Center
12:54PM 55.6333 -73.4833 220° Southwest 490 564 36,000  Level Montreal Center
12:55PM 55.5667 -73.6500 235° Southwest 500 575 36,000  Level Gander Center
12:56PM 55.4667 -73.8167 223° Southwest 500 575 36,000  Level Gander Center
12:57PM 55.3500 -73.9667 216° Southwest 500 575 36,000  Level Gander Center
12:57PM 55.3333 -73.9833 210° Southwest 490 564 36,000  Level Montreal Center
12:58PM 55.2167 -74.1333 216° Southwest 490 564 36,000  Level Montreal Center
12:59PM 55.1167 -74.2833 221° Southwest 490 564 36,000  Level Montreal Center
01:00PM 55.0500 -74.4333 232° Southwest 490 564 36,000  Level Gander Center
01:00PM 55.0167 -74.4333 180° South 490 564 36,000  Level Montreal Center
01:01PM 54.9167 -74.5833 221° Southwest 490 564 36,000  Level Montreal Center
01:02PM 54.8167 -74.7333 221° Southwest 490 564 36,000  Level Montreal Center
01:03PM 54.7000 -74.9167 222° Southwest 490 564 36,000  Level Montreal Center
01:04PM 54.5833 -75.0667 217° Southwest 490 564 36,000  Level Montreal Center
01:05PM 54.5333 -75.2000 237° Southwest 490 564 36,000  Level Gander Center
01:06PM 54.4167 -75.3667 220° Southwest 490 564 36,000  Level Gander Center
01:07PM 54.3167 -75.5000 218° Southwest 490 564 36,000  Level Gander Center
01:07PM 54.2833 -75.5000 180° South 480 552 36,000  Level Montreal Center
01:08PM 54.1833 -75.6500 221° Southwest 480 552 36,000  Level Montreal Center
01:09PM 54.0833 -75.7833 218° Southwest 480 552 36,000  Level Montreal Center
01:10PM 54.0000 -75.9500 230° Southwest 480 552 36,000  Level Gander Center
01:12PM 53.8000 -76.2167 218° Southwest 490 564 36,000  Level Gander Center
01:12PM 53.7667 -76.2167 180° South 480 552 36,000  Level Montreal Center
01:13PM 53.6667 -76.3667 222° Southwest 480 552 36,000  Level Montreal Center
01:14PM 53.5500 -76.5000 214° Southwest 480 552 36,000  Level Montreal Center
01:15PM 53.4500 -76.6500 222° Southwest 480 552 36,000  Level Montreal Center
01:16PM 53.3333 -76.8167 220° Southwest 480 552 36,000  Level Montreal Center
01:17PM 53.2333 -76.9500 219° Southwest 480 552 36,000  Level Montreal Center
01:18PM 53.1333 -77.0833 219° Southwest 480 552 36,000  Level Montreal Center
01:19PM 53.0333 -77.2167 219° Southwest 480 552 36,000  Level Montreal Center
01:20PM 52.9333 -77.3667 222° Southwest 470 541 36,000  Level Montreal Center
01:21PM 52.8333 -77.5000 219° Southwest 470 541 36,000  Level Montreal Center
01:22PM 52.7167 -77.6333 215° Southwest 470 541 36,000  Level Montreal Center
01:23PM 52.6167 -77.7667 219° Southwest 470 541 36,000  Level Montreal Center
01:24PM 52.5167 -77.9000 219° Southwest 460 529 36,000  Level Montreal Center
01:25PM 52.4167 -78.0000 211° Southwest 460 529 36,000  Level Montreal Center
01:26PM 52.3167 -78.1333 219° Southwest 450 518 36,000  Level Montreal Center
01:27PM 52.2167 -78.2667 219° Southwest 460 529 36,000  Level Montreal Center
01:28PM 52.1167 -78.4000 219° Southwest 450 518 36,000  Level Montreal Center
01:29PM 52.0167 -78.5333 219° Southwest 450 518 36,000  Level Montreal Center
01:30PM 51.9167 -78.6333 212° Southwest 450 518 36,000  Level Montreal Center
01:31PM 51.8167 -78.7667 220° Southwest 450 518 36,000  Level Montreal Center
01:32PM 51.7000 -78.9000 215° Southwest 450 518 36,000  Level Montreal Center
01:33PM 51.6167 -79.0333 225° Southwest 440 506 36,000  Level Montreal Center
01:34PM 51.5167 -79.1500 216° Southwest 440 506 36,000  Level Montreal Center
01:35PM 51.4333 -79.2667 221° Southwest 440 506 36,000  Level Montreal Center
01:36PM 51.3167 -79.3833 212° Southwest 440 506 36,000  Level Montreal Center
01:37PM 51.2167 -79.4833 212° Southwest 440 506 36,000  Level Montreal Center
01:39PM 51.1000 -79.6000 212° Southwest 430 495 36,000  Level Toronto Center
01:40PM 51.0000 -79.7333 220° Southwest 430 495 36,000  Level Toronto Center
01:41PM 50.9000 -79.8333 212° Southwest 430 495 36,000  Level Toronto Center
01:42PM 50.8167 -79.9500 222° Southwest 430 495 36,000  Level Toronto Center
01:42PM 50.7500 -80.0667 228° Southwest 420 483 36,000  Level Montreal Center
01:43PM 50.6333 -80.1667 209° Southwest 430 495 36,000  Level Montreal Center
01:44PM 50.6167 -80.1500 148° Southeast 430 495 36,000  Level Toronto Center
01:45PM 50.5167 -80.2833 220° Southwest 430 495 36,000  Level Toronto Center
01:46PM 50.4167 -80.3833 213° Southwest 430 495 36,000  Level Toronto Center
01:46PM 50.3333 -80.4667 213° Southwest 430 495 36,000  Level Montreal Center
01:47PM 50.3167 -80.4833 213° Southwest 430 495 36,000  Level Toronto Center
01:48PM 50.2167 -80.6000 217° Southwest 430 495 36,000  Level Toronto Center
01:49PM 50.1167 -80.7000 213° Southwest 430 495 36,000  Level Toronto Center
01:50PM 50.0000 -80.8000 209° Southwest 430 495 36,000  Level Toronto Center
01:51PM 49.9167 -80.9000 218° Southwest 430 495 36,000  Level Toronto Center
01:52PM 49.8167 -81.0167 217° Southwest 430 495 36,000  Level Toronto Center
01:53PM 49.7167 -81.1167 213° Southwest 440 506 36,000  Level Toronto Center
01:54PM 49.6167 -81.2167 213° Southwest 440 506 36,000  Level Toronto Center
01:55PM 49.5167 -81.3167 213° Southwest 440 506 36,000  Level Toronto Center
01:56PM 49.4000 -81.4500 217° Southwest 440 506 36,000  Level Toronto Center
01:57PM 49.3167 -81.5500 218° Southwest 440 506 36,000  Level Toronto Center
01:58PM 49.2167 -81.6500 213° Southwest 440 506 36,000  Level Toronto Center
01:59PM 49.1167 -81.7500 213° Southwest 440 506 36,000  Level Toronto Center
02:00PM 49.0167 -81.8333 209° Southwest 440 506 36,000  Level Toronto Center
02:01PM 48.9000 -81.9667 217° Southwest 440 506 36,000  Level Toronto Center
02:02PM 48.7833 -82.0333 201° Southwest 440 506 36,000  Level Toronto Center
02:03PM 48.6833 -82.1333 213° Southwest 440 506 36,000  Level Toronto Center
02:03PM 48.6167 -82.2333 225° Southwest 440 506 36,000  Level Montreal Center
02:04PM 48.5667 -82.2167 168° South 440 506 36,000  Level Toronto Center
02:05PM 48.4667 -82.3000 209° Southwest 440 506 36,000  Level Toronto Center
02:06PM 48.3667 -82.3833 209° Southwest 430 495 36,000  Level Toronto Center
02:07PM 48.2667 -82.4833 214° Southwest 430 495 36,000  Level Toronto Center
02:08PM 48.1500 -82.5500 201° Southwest 430 495 36,000  Level Toronto Center
02:09PM 48.0500 -82.6500 214° Southwest 420 483 36,000  Level Toronto Center
02:10PM 47.9500 -82.7167 204° Southwest 420 483 36,000  Level Toronto Center
02:15PM 47.4180 -83.1430 204° Southwest 416 479 36,000  Level FlightAware
02:16PM 47.3290 -83.2110 207° Southwest 416 479 36,000  Level FlightAware
02:17PM 47.2600 -83.2630 207° Southwest 416 479 36,000  Level FlightAware
02:17PM 47.1990 -83.3090 207° Southwest 415 478 36,000  Level FlightAware
02:18PM 47.1130 -83.3740 207° Southwest 414 476 36,000  Level FlightAware
02:19PM 47.0430 -83.4260 207° Southwest 414 476 36,000  Level FlightAware
02:19PM 46.9710 -83.4800 207° Southwest 415 478 36,000  Level FlightAware
02:20PM 46.9010 -83.5320 207° Southwest 417 480 36,000  Level FlightAware
02:21PM 46.8300 -83.5850 207° Southwest 419 482 36,000  Level FlightAware
02:21PM 46.7500 -83.6440 207° Southwest 421 484 36,000  Level FlightAware
02:24PM 46.5300 -83.8070 207° Southwest 425 489 36,000  Level FlightAware
02:24PM 46.4380 -83.8740 207° Southwest 426 490 36,000  Level FlightAware
02:25PM 46.3650 -83.9270 207° Southwest 427 491 36,000  Level FlightAware
02:26PM 46.2940 -83.9790 207° Southwest 428 493 36,000  Level FlightAware
02:27PM 46.2150 -84.0360 207° Southwest 430 495 36,000  Level FlightAware
02:28PM 46.0930 -84.1240 207° Southwest 432 497 36,000  Level FlightAware
02:30PM 45.8960 -84.2660 207° Southwest 434 499 36,000  Level FlightAware
02:30PM 45.8210 -84.3190 206° Southwest 436 502 36,000  Level FlightAware
02:31PM 45.7370 -84.3790 207° Southwest 437 503 36,000  Level FlightAware
02:31PM 45.7136 -84.3936 207° Southwest 436 502 36,000  Level Minneapolis Center
02:32PM 45.6600 -84.4330 207° Southwest 436 502 36,000  Level FlightAware
02:32PM 45.6020 -84.4750 207° Southwest 436 502 36,000  Level FlightAware
02:33PM 45.5460 -84.5140 206° Southwest 436 502 36,000  Level FlightAware
02:34PM 45.4360 -84.5910 206° Southwest 437 503 36,000  Level FlightAware
02:35PM 45.3580 -84.6460 206° Southwest 438 504 36,000  Level FlightAware
02:35PM 45.2740 -84.7000 204° Southwest 439 505 36,000  Level FlightAware
02:36PM 45.2170 -84.7220 195° South 439 505 36,000  Level FlightAware
02:36PM 45.1460 -84.7460 193° South 438 504 36,000  Level FlightAware
02:37PM 45.0660 -84.7720 193° South 434 499 36,000  Level FlightAware
02:38PM 44.9880 -84.7980 193° South 431 496 36,000  Level FlightAware
02:38PM 44.8980 -84.8270 193° South 431 496 36,000  Level FlightAware
02:39PM 44.8270 -84.8510 193° South 431 496 36,000 -300 Level FlightAware
02:40PM 44.7340 -84.8810 193° South 432 497 35,600 -780 Descending FlightAware
02:41PM 44.6250 -84.9170 193° South 438 504 34,700 -840 Descending FlightAware
02:41PM 44.5510 -84.9410 193° South 438 504 34,300 -840 Descending FlightAware
02:42PM 44.4680 -84.9680 193° South 432 497 33,600 -1,800 Descending FlightAware
02:43PM 44.3770 -84.9970 193° South 424 488 31,700 -2,160 Descending FlightAware
02:44PM 44.3010 -85.0220 193° South 411 473 30,500 -2,220 Descending FlightAware
02:44PM 44.2210 -85.0470 193° South 411 473 28,600 -1,740 Descending FlightAware
02:45PM 44.1380 -85.0740 193° South 421 484 28,000 -480 Descending FlightAware
02:46PM 44.0710 -85.0960 193° South 420 483 28,000  Level FlightAware
02:46PM 44.0220 -85.1110 192° South 420 483 28,000 -540 Level FlightAware
02:47PM 43.9120 -85.1460 193° South 408 470 27,300 -1,920 Descending FlightAware
02:48PM 43.8310 -85.1720 193° South 414 476 25,300 -2,280 Descending FlightAware
02:48PM 43.7460 -85.1990 193° South 433 498 24,000 -900 Descending FlightAware
02:49PM 43.6620 -85.2260 193° South 428 493 24,000  Level FlightAware
02:50PM 43.5850 -85.2500 193° South 423 487 24,000  Level FlightAware
02:51PM 43.5090 -85.2730 192° South 417 480 24,000  Level FlightAware
02:51PM 43.4260 -85.2990 193° South 417 480 24,000  Level FlightAware
02:52PM 43.3480 -85.3240 193° South 417 480 24,000  Level FlightAware
02:53PM 43.2710 -85.3480 193° South 416 479 24,000  Level FlightAware
02:53PM 43.1960 -85.3710 193° South 417 480 24,000 -240 Level FlightAware
02:54PM 43.1100 -85.3980 193° South 418 481 23,700 -1,680 Descending FlightAware
02:55PM 43.0350 -85.4410 203° Southwest 428 493 21,600 -2,580 Descending FlightAware
02:55PM 42.9860 -85.5260 232° Southwest 421 484 20,200 -1,200 Descending FlightAware
02:56PM 42.9450 -85.6170 238° Southwest 421 484 20,000 -180 Descending FlightAware
02:57PM 42.9010 -85.7160 239° Southwest 428 493 20,000  Level FlightAware
02:58PM 42.8550 -85.8160 238° Southwest 432 497 20,000  Level FlightAware
02:58PM 42.8100 -85.9140 238° Southwest 433 498 20,000  Level FlightAware
02:59PM 42.7730 -85.9960 238° Southwest 433 498 20,000  Level FlightAware
03:00PM 42.7220 -86.1070 238° Southwest 432 497 20,000  Level FlightAware
03:00PM 42.6770 -86.2040 238° Southwest 432 497 20,000  Level FlightAware
03:01PM 42.6420 -86.2990 243° Southwest 428 493 20,000 -300 Level FlightAware
03:02PM 42.6190 -86.4120 255° West 418 481 19,600 -1,380 Descending FlightAware
03:03PM 42.6000 -86.5200 257° West 411 473 18,000 -2,220 Descending FlightAware
03:03PM 42.5800 -86.6220 255° West 402 463 16,500 -2,280 Descending FlightAware
03:04PM 42.5620 -86.7160 255° West 391 450 15,000 -2,340 Descending FlightAware
03:05PM 42.5360 -86.8170 251° West 378 435 13,300 -2,520 Descending FlightAware
03:05PM 42.5140 -86.8980 250° West 374 430 11,700 -1,980 Descending FlightAware
03:06PM 42.4910 -86.9820 250° West 345 397 10,800 -1,080 Descending FlightAware
03:06PM 42.4750 -87.0410 250° West 314 361 10,500 -780 Descending FlightAware
03:07PM 42.4550 -87.1130 249° West 292 336 9,900 -1,020 Descending FlightAware
03:07PM 42.4490 -87.1350 250° West 292 336 9,600 -1,200 Descending FlightAware
03:08PM 42.4350 -87.1860 250° West 293 337 9,100 -660 Descending FlightAware
03:08PM 42.4270 -87.2130 248° West 292 336 9,100  Level FlightAware
03:08PM 42.4190 -87.2270 232° Southwest 293 337 9,100  Level FlightAware
03:08PM 42.4050 -87.2400 214° Southwest 295 339 9,100 180 Level FlightAware
03:09PM 42.3810 -87.2460 190° South 297 342 9,200  Climbing FlightAware
03:09PM 42.3420 -87.2430 177° South 296 341 9,100 -120 Descending FlightAware
03:10PM 42.3060 -87.2390 175° South 295 339 9,100 -540 Level FlightAware
03:10PM 42.2660 -87.2360 177° South 293 337 8,600 -1,200 Descending FlightAware
03:11PM 42.2100 -87.2300 175° South 288 331 7,700 -1,320 Descending FlightAware
03:11PM 42.1830 -87.2270 175° South 286 329 7,200 -720 Descending FlightAware
03:12PM 42.1420 -87.2230 176° South 287 330 7,100 -120 Descending FlightAware
03:12PM 42.0980 -87.2130 170° South 288 331 7,100  Level FlightAware
03:13PM 42.0710 -87.1970 156° South 289 333 7,100  Level FlightAware
03:13PM 42.0440 -87.1870 165° South 288 331 7,100  Level FlightAware
03:13PM 42.0120 -87.1960 192° South 281 323 7,100  Level FlightAware
03:14PM 41.9990 -87.2130 224° Southwest 275 316 7,100  Level FlightAware
03:14PM 41.9920 -87.2310 242° Southwest 271 312 7,100  Level FlightAware
03:14PM 41.9870 -87.2580 256° West 271 312 7,100  Level FlightAware
03:14PM 41.9840 -87.2980 264° West 269 310 7,100  Level FlightAware
03:15PM 41.9840 -87.3420 270° West 248 285 7,100  Level FlightAware
03:15PM 41.9840 -87.3720 270° West 229 264 7,100  Level FlightAware
03:16PM 41.9840 -87.4040 270° West 223 257 7,100  Level FlightAware
03:16PM 41.9830 -87.4470 268° West 220 253 7,100 -360 Level FlightAware
03:17PM 41.9830 -87.4820 270° West 209 241 6,800 -1,140 Descending FlightAware
03:17PM 41.9830 -87.5180 270° West 199 229 6,100 -1,320 Descending FlightAware
03:18PM 41.9830 -87.5540 270° West 189 217 5,600 -1,080 Descending FlightAware
03:18PM 41.9830 -87.5660 270° West 188 216 5,400 -1,020 Descending FlightAware
03:18PM 41.9830 -87.5960 270° West 186 214 5,000 -960 Descending FlightAware
03:19PM 41.9840 -87.6310 272° West 184 212 4,500 -1,140 Descending FlightAware
03:19PM 41.9840 -87.6660 270° West 183 211 3,900 -1,020 Descending FlightAware
03:20PM 41.9840 -87.6990 270° West 192 221 3,500 -1,020 Descending FlightAware
03:20PM 41.9840 -87.7170 270° West 192 221 3,200 -1,140 Descending FlightAware
03:21PM 41.9840 -87.7640 270° West 191 220 2,500 -960 Descending FlightAware
03:21PM 41.9840 -87.7970 270° West 180 207 2,100 -840 Descending FlightAware
03:22PM 41.9840 -87.8340 270° West 160 184 1,600 -840 Descending FlightAware
03:22PM 41.9840 -87.8620 270° West 145 167 1,200 -900 Descending FlightAware
03:23PM 41.9840 -87.8870 270° West 146 168 800 -900 Descending FlightAware
03:23PM 41.9840 -87.9060 270° West 74 85 -2,040 Descending FlightAware
03:24PM 41.9830 -87.9120 257° West 17 20  Level FlightAware
03:24PM 41.9820 -87.9110 143° Southeast 30 35  Level FlightAware
03:25PM 41.9820 -87.9090 90° East 29 33  Level FlightAware